createdAt,value
2019-01-22T00:01:20.990Z,20.60
2019-01-22T00:03:52.457Z,20.73
2019-01-22T00:06:24.054Z,20.87
2019-01-22T00:08:55.415Z,20.20
2019-01-22T00:11:26.929Z,20.80
2019-01-22T00:13:58.498Z,20.50
2019-01-22T00:16:29.898Z,21.30
2019-01-22T00:19:01.277Z,24.07
2019-01-22T00:21:32.736Z,22.63
2019-01-22T00:24:04.467Z,23.87
2019-01-22T00:26:35.942Z,23.60
2019-01-22T00:29:07.719Z,22.07
2019-01-22T00:31:39.213Z,22.70
2019-01-22T00:34:10.511Z,25.17
2019-01-22T00:36:42.027Z,23.73
2019-01-22T00:39:13.447Z,23.30
2019-01-22T00:41:44.916Z,25.17
2019-01-22T00:44:16.369Z,23.50
2019-01-22T00:46:47.761Z,22.40
2019-01-22T00:49:19.061Z,22.53
2019-01-22T00:51:51.167Z,23.90
2019-01-22T00:54:22.627Z,24.37
2019-01-22T00:56:53.959Z,24.07
2019-01-22T00:59:25.497Z,24.87
2019-01-22T01:01:57.049Z,24.90
2019-01-22T01:04:28.429Z,22.40
2019-01-22T01:07:00.020Z,22.73
2019-01-22T01:09:31.482Z,21.83
2019-01-22T01:12:02.876Z,22.03
2019-01-22T01:14:34.260Z,22.33
2019-01-22T01:17:05.901Z,25.03
2019-01-22T01:19:37.268Z,23.67
2019-01-22T01:22:08.784Z,23.40
2019-01-22T01:24:40.077Z,25.47
2019-01-22T01:27:12.130Z,24.07
2019-01-22T01:29:43.442Z,23.13
2019-01-22T01:32:14.791Z,25.07
2019-01-22T01:34:46.180Z,23.33
2019-01-22T01:37:17.560Z,23.90
2019-01-22T01:39:49.126Z,23.50
2019-01-22T01:42:20.465Z,24.27
2019-01-22T01:44:51.808Z,23.57
2019-01-22T01:47:23.152Z,24.43
2019-01-22T01:49:54.464Z,24.47
2019-01-22T01:52:25.816Z,23.87
2019-01-22T01:54:57.199Z,22.97
2019-01-22T01:57:28.620Z,22.23
2019-01-22T01:59:59.975Z,23.57
2019-01-22T02:02:31.524Z,23.20
2019-01-22T02:05:02.831Z,23.40
2019-01-22T02:07:34.315Z,24.27
2019-01-22T02:10:12.812Z,23.30
2019-01-22T02:13:07.171Z,23.37
2019-01-22T02:16:04.544Z,24.93
2019-01-22T02:18:52.732Z,23.07
2019-01-22T02:21:34.507Z,24.10
2019-01-22T02:24:26.103Z,24.87
2019-01-22T02:27:02.192Z,23.77
2019-01-22T02:30:07.178Z,25.87
2019-01-22T02:33:22.168Z,25.73
2019-01-22T02:36:25.474Z,23.40
2019-01-22T02:39:48.504Z,22.80
2019-01-22T02:42:36.741Z,23.37
2019-01-22T02:45:24.229Z,24.73
2019-01-22T02:48:02.983Z,25.93
2019-01-22T02:51:00.039Z,24.17
2019-01-22T02:53:38.877Z,24.67
2019-01-22T02:56:38.232Z,25.13
2019-01-22T02:59:22.582Z,24.03
2019-01-22T03:02:01.355Z,24.03
2019-01-22T03:04:46.351Z,25.80
2019-01-22T03:07:31.291Z,23.87
2019-01-22T03:10:19.533Z,25.33
2019-01-22T03:13:13.192Z,24.47
2019-01-22T03:16:24.023Z,27.00
2019-01-22T03:19:08.973Z,24.93
2019-01-22T03:21:59.274Z,25.73
2019-01-22T03:24:49.915Z,25.80
2019-01-22T03:27:28.702Z,25.47
2019-01-22T03:30:30.351Z,26.20
2019-01-22T03:33:19.732Z,25.07
2019-01-22T03:36:01.826Z,27.10
2019-01-22T03:39:03.411Z,28.63
2019-01-22T03:42:14.204Z,28.77
2019-01-22T03:45:08.420Z,26.00
2019-01-22T03:48:05.502Z,26.70
2019-01-22T03:51:08.621Z,28.30
2019-01-22T03:54:08.023Z,27.13
2019-01-22T03:57:20.211Z,26.93
2019-01-22T03:59:51.662Z,28.83
2019-01-22T04:02:24.677Z,29.17
2019-01-22T04:04:56.064Z,30.30
2019-01-22T04:07:27.785Z,30.87
2019-01-22T04:10:00.719Z,29.33
2019-01-22T04:12:46.478Z,29.30
2019-01-22T04:15:22.980Z,30.10
2019-01-22T04:17:54.477Z,29.70
2019-01-22T04:20:25.971Z,30.37
2019-01-22T04:22:58.084Z,32.43
2019-01-22T04:25:42.723Z,31.13
2019-01-22T04:28:42.923Z,31.57
2019-01-22T04:31:21.690Z,31.10
2019-01-22T04:34:32.536Z,32.33
2019-01-22T04:37:30.930Z,31.53
2019-01-22T04:40:34.014Z,33.17
2019-01-22T04:43:35.773Z,35.30
2019-01-22T04:46:33.536Z,36.10
2019-01-22T04:49:15.365Z,36.67
2019-01-22T04:52:12.043Z,35.47
2019-01-22T04:55:11.688Z,36.17
2019-01-22T04:57:50.662Z,38.93
2019-01-22T05:00:47.784Z,38.33
2019-01-22T05:03:38.535Z,40.87
2019-01-22T05:06:23.557Z,40.20
2019-01-22T05:09:13.195Z,39.63
2019-01-22T05:12:09.907Z,43.07
2019-01-22T05:15:09.747Z,42.97
2019-01-22T05:17:54.455Z,42.43
2019-01-22T05:20:30.500Z,43.20
2019-01-22T05:23:09.165Z,43.07
2019-01-22T05:26:00.387Z,42.97
2019-01-22T05:28:57.499Z,45.57
2019-01-22T05:31:42.376Z,41.63
2019-01-22T05:34:41.784Z,43.33
2019-01-22T05:37:26.502Z,42.87
2019-01-22T05:40:20.426Z,42.77
2019-01-22T05:43:14.193Z,41.60
2019-01-22T05:45:59.242Z,42.83
2019-01-22T05:49:10.217Z,45.27
2019-01-22T05:51:57.910Z,46.53
2019-01-22T05:54:42.612Z,45.37
2019-01-22T05:57:16.268Z,47.53
2019-01-22T06:00:04.572Z,48.47
2019-01-22T06:02:40.682Z,48.70
2019-01-22T06:05:41.982Z,51.40
2019-01-22T06:08:26.778Z,50.87
2019-01-22T06:11:29.720Z,55.37
2019-01-22T06:14:31.447Z,53.43
2019-01-22T06:17:22.255Z,52.03
2019-01-22T06:20:19.019Z,52.87
2019-01-22T06:23:11.736Z,55.50
2019-01-22T06:25:59.600Z,54.90
2019-01-22T06:28:47.178Z,55.93
2019-01-22T06:31:37.875Z,56.53
2019-01-22T06:34:33.486Z,56.63
2019-01-22T06:37:12.270Z,55.83
2019-01-22T06:39:59.720Z,57.23
2019-01-22T06:42:41.072Z,55.70
2019-01-22T06:45:51.490Z,54.77
2019-01-22T06:48:48.638Z,52.00
2019-01-22T06:51:54.810Z,55.47
2019-01-22T06:55:04.258Z,53.03
2019-01-22T06:58:11.680Z,53.33
2019-01-22T07:00:53.383Z,52.93
2019-01-22T07:03:44.406Z,52.87
2019-01-22T07:06:39.796Z,52.40
2019-01-22T07:09:38.739Z,50.27
2019-01-22T07:12:32.159Z,50.03
2019-01-22T07:15:59.584Z,44.43
2019-01-22T07:18:44.420Z,43.87
2019-01-22T07:21:39.731Z,41.63
2019-01-22T07:24:37.955Z,37.17
2019-01-22T07:27:28.906Z,36.23
2019-01-22T07:30:42.990Z,35.33
2019-01-22T07:33:44.555Z,33.63
2019-01-22T07:36:41.832Z,39.30
2019-01-22T07:39:26.499Z,34.43
2019-01-22T07:42:11.170Z,35.10
2019-01-22T07:44:58.934Z,37.40
2019-01-22T07:47:34.928Z,36.40
2019-01-22T07:50:31.748Z,35.83
2019-01-22T07:53:13.869Z,34.37
2019-01-22T07:56:12.350Z,34.13
2019-01-22T07:58:48.462Z,33.80
2019-01-22T08:01:39.432Z,34.20
2019-01-22T08:04:49.188Z,33.73
2019-01-22T08:07:49.561Z,34.53
2019-01-22T08:10:42.941Z,36.20
2019-01-22T08:13:53.535Z,36.17
2019-01-22T08:16:49.972Z,35.70
2019-01-22T08:19:46.950Z,35.70
2019-01-22T08:22:58.652Z,35.33
2019-01-22T08:25:45.874Z,34.13
2019-01-22T08:28:30.961Z,34.23
2019-01-22T08:31:18.778Z,37.93
2019-01-22T08:34:12.670Z,36.47
2019-01-22T08:37:14.274Z,36.47
2019-01-22T08:40:02.344Z,35.67
2019-01-22T08:43:13.289Z,35.67
2019-01-22T08:45:58.059Z,39.60
2019-01-22T08:48:49.409Z,44.63
2019-01-22T08:51:45.044Z,35.37
2019-01-22T08:54:46.169Z,35.30
2019-01-22T08:57:24.576Z,35.40
2019-01-22T09:00:17.047Z,35.97
2019-01-22T09:03:27.654Z,41.50
2019-01-22T09:06:24.716Z,39.53
2019-01-22T09:09:30.127Z,39.17
2019-01-22T09:12:34.670Z,36.47
2019-01-22T09:15:37.455Z,37.10
2019-01-22T09:18:25.520Z,37.63
2019-01-22T09:21:10.412Z,36.03
2019-01-22T09:23:53.361Z,40.13
2019-01-22T09:26:44.119Z,38.70
2019-01-22T09:29:28.420Z,38.97
2019-01-22T09:32:10.439Z,38.60
2019-01-22T09:35:01.625Z,36.47
2019-01-22T09:37:34.601Z,39.07
2019-01-22T09:40:09.951Z,38.33
2019-01-22T09:42:41.303Z,40.70
2019-01-22T09:45:12.900Z,40.67
2019-01-22T09:47:44.361Z,39.83
2019-01-22T09:50:15.959Z,40.80
2019-01-22T09:52:48.500Z,46.87
2019-01-22T09:55:22.451Z,42.83
2019-01-22T09:57:53.064Z,42.13
2019-01-22T10:00:24.862Z,41.27
2019-01-22T10:02:56.376Z,40.33
2019-01-22T10:05:28.827Z,40.43
2019-01-22T10:08:00.311Z,40.70
2019-01-22T10:10:31.970Z,40.33
2019-01-22T10:13:03.472Z,39.80
2019-01-22T10:15:35.085Z,38.13
2019-01-22T10:18:06.789Z,38.23
2019-01-22T10:20:38.516Z,40.17
2019-01-22T10:23:10.986Z,38.60
2019-01-22T10:25:42.462Z,36.50
2019-01-22T10:28:13.834Z,38.20
2019-01-22T10:30:45.241Z,39.30
2019-01-22T10:33:16.614Z,38.10
2019-01-22T10:35:48.134Z,35.83
2019-01-22T10:38:19.515Z,37.23
2019-01-22T10:40:51.310Z,36.73
2019-01-22T10:43:22.672Z,36.10
2019-01-22T10:45:54.089Z,34.80
2019-01-22T10:48:25.532Z,36.87
2019-01-22T10:50:56.978Z,37.40
2019-01-22T10:57:02.938Z,34.93
2019-01-22T10:59:34.389Z,37.93
2019-01-22T11:02:06.056Z,37.80
2019-01-22T11:04:43.423Z,35.83
2019-01-22T11:07:16.260Z,39.50
2019-01-22T11:09:47.931Z,37.87
2019-01-22T11:12:24.287Z,38.00
2019-01-22T11:14:55.606Z,42.93
2019-01-22T11:17:26.903Z,38.80
2019-01-22T11:19:58.326Z,42.20
2019-01-22T11:22:29.944Z,41.33
2019-01-22T11:25:07.068Z,39.97
2019-01-22T11:27:38.431Z,40.63
2019-01-22T11:30:17.432Z,40.63
2019-01-22T11:32:50.326Z,38.33
2019-01-22T11:35:24.567Z,40.87
2019-01-22T11:37:55.971Z,40.87
2019-01-22T11:40:34.178Z,37.17
2019-01-22T11:43:05.729Z,38.57
2019-01-22T11:45:37.224Z,38.67
2019-01-22T11:48:10.757Z,38.33
2019-01-22T11:50:42.138Z,38.67
2019-01-22T11:53:13.511Z,35.77
2019-01-22T11:55:50.472Z,38.73
2019-01-22T11:58:20.169Z,36.13
2019-01-22T12:00:53.123Z,36.13
2019-01-22T12:03:26.116Z,37.40
2019-01-22T12:05:57.503Z,36.67
2019-01-22T12:08:29.478Z,34.27
2019-01-22T12:11:01.199Z,36.93
2019-01-22T12:13:32.752Z,34.30
2019-01-22T12:16:04.275Z,33.80
2019-01-22T12:18:36.433Z,34.17
2019-01-22T12:21:08.086Z,33.07
2019-01-22T12:23:39.708Z,34.03
2019-01-22T12:26:13.274Z,32.93
2019-01-22T12:28:47.419Z,33.00
2019-01-22T12:31:30.097Z,33.40
2019-01-22T12:34:12.430Z,33.13
2019-01-22T12:38:46.662Z,32.30
2019-01-22T12:58:20.790Z,36.33
2019-01-22T13:00:52.724Z,33.27
2019-01-22T13:03:27.050Z,32.27
2019-01-22T13:06:04.970Z,33.47
2019-01-22T13:08:38.658Z,32.97
2019-01-22T13:11:12.409Z,32.43
2019-01-22T13:13:56.626Z,32.73
2019-01-22T13:16:31.660Z,33.77
2019-01-22T13:19:04.493Z,32.60
2019-01-22T13:21:40.359Z,36.17
2019-01-22T13:24:12.257Z,50.77
2019-01-22T13:26:49.483Z,33.77
2019-01-22T13:29:21.939Z,33.07
2019-01-22T13:31:54.452Z,35.43
2019-01-22T13:34:28.527Z,35.07
2019-01-22T13:37:00.219Z,32.90
2019-01-22T13:39:32.349Z,33.70
2019-01-22T13:42:04.205Z,33.50
2019-01-22T13:44:38.298Z,34.17
2019-01-22T13:47:29.514Z,31.93
2019-01-22T13:50:02.036Z,32.80
2019-01-22T13:52:35.256Z,32.07
2019-01-22T13:55:11.606Z,32.97
2019-01-22T13:57:47.731Z,33.83
2019-01-22T14:00:26.910Z,34.00
2019-01-22T14:03:00.794Z,33.47
2019-01-22T14:05:32.426Z,32.27
2019-01-22T14:08:05.473Z,33.03
2019-01-22T14:10:38.464Z,32.57
2019-01-22T14:13:09.874Z,33.80
2019-01-22T14:15:42.305Z,34.57
2019-01-22T14:18:15.397Z,32.67
2019-01-22T14:20:46.987Z,31.60
2019-01-22T14:23:18.454Z,32.00
2019-01-22T14:25:50.046Z,31.87
2019-01-22T14:28:21.569Z,36.67
2019-01-22T14:30:53.162Z,33.93
2019-01-22T14:33:24.849Z,33.20
2019-01-22T14:35:56.497Z,32.93
2019-01-22T14:38:29.707Z,35.80
2019-01-22T14:41:03.958Z,33.50
2019-01-22T14:43:38.730Z,33.37
2019-01-22T14:46:10.405Z,34.47
2019-01-22T14:48:43.343Z,34.90
2019-01-22T14:51:15.246Z,33.67
2019-01-22T14:53:49.949Z,35.00
2019-01-22T14:56:21.535Z,34.80
2019-01-22T14:58:54.928Z,32.77
2019-01-22T15:01:27.827Z,32.07
2019-01-22T15:03:59.636Z,33.83
2019-01-22T15:06:33.363Z,34.73
2019-01-22T15:09:06.731Z,32.43
2019-01-22T15:11:38.255Z,31.80
2019-01-22T15:14:09.684Z,31.40
2019-01-22T15:16:41.011Z,33.07
2019-01-22T15:19:12.601Z,34.67
2019-01-22T15:21:43.940Z,31.83
2019-01-22T15:24:15.338Z,30.90
2019-01-22T15:26:46.670Z,30.53
2019-01-22T15:29:17.986Z,31.03
2019-01-22T15:31:49.282Z,29.47
2019-01-22T15:34:20.666Z,30.43
2019-01-22T15:36:53.296Z,28.70
2019-01-22T15:39:24.716Z,33.13
2019-01-22T15:41:56.015Z,28.80
2019-01-22T15:44:27.652Z,29.83
2019-01-22T15:46:59.168Z,29.40
2019-01-22T15:49:30.629Z,27.53
2019-01-22T15:52:01.899Z,27.07
2019-01-22T15:54:33.449Z,26.00
2019-01-22T15:57:04.797Z,26.03
2019-01-22T15:59:36.221Z,26.40
2019-01-22T16:02:07.912Z,43.03
2019-01-22T16:04:39.529Z,26.77
2019-01-22T16:07:11.191Z,31.20
2019-01-22T16:09:42.706Z,28.23
2019-01-22T16:12:14.064Z,26.53
2019-01-22T16:14:45.579Z,26.23
2019-01-22T16:17:18.663Z,26.33
2019-01-22T16:19:50.069Z,24.10
2019-01-22T16:22:21.487Z,24.27
2019-01-22T16:24:53.313Z,24.60
2019-01-22T16:27:27.940Z,23.80
2019-01-22T16:29:59.652Z,24.00
2019-01-22T16:32:31.120Z,22.30
2019-01-22T16:35:02.920Z,22.67
2019-01-22T16:37:34.583Z,22.23
2019-01-22T16:40:13.463Z,21.10
2019-01-22T16:42:46.150Z,20.63
2019-01-22T16:45:27.750Z,21.53
2019-01-22T16:47:59.537Z,27.90
2019-01-22T16:50:33.751Z,31.93
2019-01-22T16:53:07.596Z,33.57
2019-01-22T16:55:41.197Z,32.27
2019-01-22T16:58:12.954Z,29.73
2019-01-22T17:00:44.637Z,23.83
2019-01-22T17:03:16.301Z,23.70
2019-01-22T17:05:56.287Z,25.13
2019-01-22T17:08:27.577Z,22.83
2019-01-22T17:10:58.848Z,21.73
2019-01-22T17:13:32.477Z,21.20
2019-01-22T17:20:25.963Z,23.60
2019-01-22T17:23:01.925Z,26.00
2019-01-22T17:25:31.118Z,27.07
2019-01-22T17:28:02.630Z,25.70
2019-01-22T17:30:34.125Z,22.53
2019-01-22T17:33:12.584Z,22.27
2019-01-22T17:35:43.743Z,19.03
2019-01-22T17:38:15.606Z,20.13
2019-01-22T17:40:49.884Z,18.80
2019-01-22T17:43:21.487Z,19.83
2019-01-22T17:45:53.253Z,21.30
2019-01-22T17:48:24.799Z,22.00
2019-01-22T17:50:56.321Z,23.17
2019-01-22T17:53:27.761Z,24.03
2019-01-22T17:56:01.545Z,24.53
2019-01-22T17:58:38.940Z,24.23
2019-01-22T18:01:14.761Z,24.63
2019-01-22T18:03:50.910Z,24.37
2019-01-22T18:06:22.624Z,25.40
2019-01-22T18:08:54.182Z,24.90
2019-01-22T18:11:29.894Z,24.10
2019-01-22T18:14:03.272Z,26.30
2019-01-22T18:16:35.174Z,28.50
2019-01-22T18:19:06.884Z,28.27
2019-01-22T18:21:42.393Z,25.57
2019-01-22T18:24:15.594Z,30.77
2019-01-22T18:26:47.082Z,26.47
2019-01-22T18:29:18.822Z,25.83
2019-01-22T18:31:51.977Z,24.63
2019-01-22T18:34:23.435Z,26.10
2019-01-22T18:36:54.948Z,24.90
2019-01-22T18:39:26.716Z,26.37
2019-01-22T18:41:58.213Z,26.97
2019-01-22T18:44:35.584Z,25.87
2019-01-22T18:47:14.549Z,26.70
2019-01-22T18:49:47.667Z,26.77
2019-01-22T18:52:19.446Z,25.93
2019-01-22T18:54:55.398Z,26.47
2019-01-22T18:57:27.575Z,27.80
2019-01-22T18:59:59.154Z,26.67
2019-01-22T19:02:32.296Z,27.10
2019-01-22T19:05:04.546Z,26.73
2019-01-22T19:07:36.683Z,26.20
2019-01-22T19:10:21.146Z,26.63
2019-01-22T19:12:54.145Z,25.17
2019-01-22T19:15:28.605Z,26.63
2019-01-22T19:18:04.517Z,25.57
2019-01-22T19:20:39.202Z,25.57
2019-01-22T19:23:10.916Z,25.37
2019-01-22T19:25:44.546Z,24.70
2019-01-22T19:28:17.446Z,25.53
2019-01-22T19:30:49.918Z,24.50
2019-01-22T19:33:23.148Z,25.30
2019-01-22T19:35:54.860Z,25.67
2019-01-22T19:38:26.227Z,24.10
2019-01-22T19:40:57.770Z,25.13
2019-01-22T19:43:33.586Z,26.03
2019-01-22T19:46:05.542Z,24.33
2019-01-22T19:48:38.620Z,24.17
2019-01-22T19:51:10.281Z,27.53
2019-01-22T19:53:42.014Z,26.70
2019-01-22T19:56:16.485Z,29.63
2019-01-22T19:58:47.994Z,29.47
2019-01-22T20:01:21.737Z,28.33
2019-01-22T20:03:53.320Z,29.77
2019-01-22T20:06:24.873Z,27.93
2019-01-22T20:08:56.185Z,27.60
2019-01-22T20:11:27.654Z,28.67
2019-01-22T20:13:59.027Z,27.97
2019-01-22T20:16:30.504Z,28.97
2019-01-22T20:19:02.820Z,29.53
2019-01-22T20:21:34.169Z,28.17
2019-01-22T20:24:08.126Z,31.87
2019-01-22T20:26:41.045Z,29.93
2019-01-22T20:29:12.380Z,28.83
2019-01-22T20:31:43.745Z,28.73
2019-01-22T20:34:14.992Z,27.50
2019-01-22T20:36:46.354Z,28.13
2019-01-22T20:39:30.562Z,30.33
2019-01-22T20:42:02.084Z,29.83
2019-01-22T20:44:33.393Z,29.63
2019-01-22T20:47:04.828Z,28.33
2019-01-22T20:49:36.185Z,29.87
2019-01-22T20:52:07.710Z,28.07
2019-01-22T20:54:39.092Z,27.37
2019-01-22T20:57:10.639Z,29.03
2019-01-22T20:59:41.931Z,29.30
2019-01-22T21:02:13.373Z,27.20
2019-01-22T21:04:44.988Z,27.03
2019-01-22T21:07:16.378Z,27.10
2019-01-22T21:09:49.225Z,27.03
2019-01-22T21:12:20.705Z,26.80
2019-01-22T21:14:53.174Z,28.43
2019-01-22T21:17:24.709Z,28.13
2019-01-22T21:20:01.924Z,26.67
2019-01-22T21:22:30.817Z,28.73
2019-01-22T21:25:02.056Z,27.17
2019-01-22T21:27:33.768Z,28.00
2019-01-22T21:30:09.581Z,28.50
2019-01-22T21:32:42.358Z,28.20
2019-01-22T21:35:13.747Z,27.93
2019-01-22T21:37:45.124Z,27.27
2019-01-22T21:40:17.690Z,26.87
2019-01-22T21:42:51.832Z,26.53
2019-01-22T21:45:28.922Z,26.67
2019-01-22T21:48:01.255Z,26.97
2019-01-22T21:50:32.767Z,26.30
2019-01-22T21:53:04.541Z,24.07
2019-01-22T21:55:35.889Z,25.47
2019-01-22T21:58:08.611Z,24.73
2019-01-22T22:00:40.265Z,25.07
2019-01-22T22:03:11.779Z,26.40
2019-01-22T22:05:43.088Z,25.93
2019-01-22T22:08:14.459Z,26.40
2019-01-22T22:10:45.900Z,26.57
2019-01-22T22:13:17.417Z,24.60
2019-01-22T22:15:51.517Z,25.10
2019-01-22T22:18:22.883Z,24.70
2019-01-22T22:20:54.210Z,27.83
2019-01-22T22:23:25.571Z,24.73
2019-01-22T22:25:56.852Z,25.17
2019-01-22T22:28:28.213Z,26.20
2019-01-22T22:30:59.575Z,25.23
2019-01-22T22:33:30.897Z,25.57
2019-01-22T22:36:02.160Z,25.43
2019-01-22T22:38:33.495Z,25.90
2019-01-22T22:41:05.016Z,25.87
2019-01-22T22:43:36.461Z,25.97
2019-01-22T22:46:07.972Z,27.93
2019-01-22T22:48:39.369Z,31.97
2019-01-22T22:51:10.712Z,28.90
2019-01-22T22:53:42.164Z,29.10
2019-01-22T22:56:13.512Z,28.00
2019-01-22T22:58:44.854Z,26.87
2019-01-22T23:01:24.011Z,26.57
2019-01-22T23:03:56.579Z,25.73
2019-01-22T23:06:28.043Z,25.47
2019-01-22T23:08:59.511Z,26.53
2019-01-22T23:11:30.868Z,25.17
2019-01-22T23:14:02.301Z,25.67
2019-01-22T23:16:33.768Z,26.67
2019-01-22T23:19:05.314Z,24.27
2019-01-22T23:21:37.732Z,27.37
2019-01-22T23:24:09.270Z,25.53
2019-01-22T23:26:40.689Z,26.77
2019-01-22T23:29:12.228Z,25.80
2019-01-22T23:31:43.624Z,26.73
2019-01-22T23:34:15.125Z,26.63
2019-01-22T23:36:46.548Z,29.03
2019-01-22T23:39:17.861Z,27.83
2019-01-22T23:41:49.299Z,27.90
2019-01-22T23:44:20.799Z,27.37
2019-01-22T23:46:52.259Z,26.17
2019-01-22T23:49:23.662Z,27.07
2019-01-22T23:51:55.026Z,26.80
2019-01-22T23:54:26.462Z,26.60
2019-01-22T23:56:58.374Z,27.03
2019-01-22T23:59:29.890Z,26.47
